sensor_id;sensor_type;location;lat;lon;timestamp;P1;durP1;ratioP1;P2;durP2;ratioP2
74457;SDS011;62896;51.032;3.712;2024-02-15T00:00:41;10.4;;;2.4;;
74457;SDS011;62896;51.032;3.712;2024-02-15T00:04:01;10.4;;;2.4;;
74457;SDS011;62896;51.032;3.712;2024-02-15T00:07:21;10.4;;;2.4;;
74457;SDS011;62896;51.032;3.712;2024-02-15T00:10:41;10.4;;;2.4;;
74457;SDS011;62896;51.032;3.712;2024-02-15T00:14:01;8.4;;;2.4;;
74457;SDS011;62896;51.032;3.712;2024-02-15T00:17:21;8.4;;;2.4;;
74457;SDS011;62896;51.032;3.712;2024-02-15T00:20:41;8.4;;;2.4;;
74457;SDS011;62896;51.032;3.712;2024-02-15T00:24:01;8.4;;;2.4;;
74457;SDS011;62896;51.032;3.712;2024-02-15T00:27:21;8.4;;;2.4;;
74457;SDS011;62896;51.032;3.712;2024-02-15T00:30:41;8.4;;;2.4;;
74457;SDS011;62896;51.032;3.712;2024-02-15T00:34:01;8.4;;;2.4;;
74457;SDS011;62896;51.032;3.712;2024-02-15T00:37:21;9.7;;;2.2;;
74457;SDS011;62896;51.032;3.712;2024-02-15T00:40:41;9.7;;;2.2;;
74457;SDS011;62896;51.032;3.712;2024-02-15T00:44:01;9.7;;;2.2;;
74457;SDS011;62896;51.032;3.712;2024-02-15T00:47:21;9.7;;;2.2;;
74457;SDS011;62896;51.032;3.712;2024-02-15T00:50:41;9.7;;;2.2;;
74457;SDS011;62896;51.032;3.712;2024-02-15T00:54:01;9.7;;;2.2;;
74457;SDS011;62896;51.032;3.712;2024-02-15T00:57:21;9.7;;;2.2;;
74457;SDS011;62896;51.032;3.712;2024-02-15T01:00:41;9.7;;;2.2;;
74457;SDS011;62896;51.032;3.712;2024-02-15T01:04:01;8.2;;;2.1;;
74457;SDS011;62896;51.032;3.712;2024-02-15T01:07:21;8.2;;;2.1;;
74457;SDS011;62896;51.032;3.712;2024-02-15T01:10:41;8.2;;;2.1;;
74457;SDS011;62896;51.032;3.712;2024-02-15T01:14:01;8.2;;;2.1;;
74457;SDS011;62896;51.032;3.712;2024-02-15T01:17:21;8.2;;;2.1;;
74457;SDS011;62896;51.032;3.712;2024-02-15T01:20:41;8.2;;;2.1;;
74457;SDS011;62896;51.032;3.712;2024-02-15T01:24:01;8.2;;;2.1;;
74457;SDS011;62896;51.032;3.712;2024-02-15T01:27:21;9.7;;;2.3;;
74457;SDS011;62896;51.032;3.712;2024-02-15T01:30:41;9.7;;;2.3;;
74457;SDS011;62896;51.032;3.712;2024-02-15T01:34:01;9.7;;;2.3;;
74457;SDS011;62896;51.032;3.712;2024-02-15T01:37:21;9.7;;;2.3;;
74457;SDS011;62896;51.032;3.712;2024-02-15T01:40:41;9.7;;;2.3;;
74457;SDS011;62896;51.032;3.712;2024-02-15T01:44:01;9.7;;;2.3;;
74457;SDS011;62896;51.032;3.712;2024-02-15T01:47:21;9.7;;;2.3;;
74457;SDS011;62896;51.032;3.712;2024-02-15T01:50:41;9.7;;;2.3;;
74457;SDS011;62896;51.032;3.712;2024-02-15T01:54:01;7.3;;;2.2;;
74457;SDS011;62896;51.032;3.712;2024-02-15T01:57:21;7.3;;;2.2;;
74457;SDS011;62896;51.032;3.712;2024-02-15T02:00:41;7.3;;;2.2;;
74457;SDS011;62896;51.032;3.712;2024-02-15T02:04:01;7.3;;;2.2;;
74457;SDS011;62896;51.032;3.712;2024-02-15T02:07:21;7.3;;;2.2;;
74457;SDS011;62896;51.032;3.712;2024-02-15T02:10:41;7.3;;;2.2;;
74457;SDS011;62896;51.032;3.712;2024-02-15T02:14:01;7.3;;;2.2;;
74457;SDS011;62896;51.032;3.712;2024-02-15T02:17:21;9.7;;;2.8;;
74457;SDS011;62896;51.032;3.712;2024-02-15T02:20:41;9.7;;;2.8;;
74457;SDS011;62896;51.032;3.712;2024-02-15T02:24:02;9.7;;;2.8;;
74457;SDS011;62896;51.032;3.712;2024-02-15T02:27:21;9.7;;;2.8;;
74457;SDS011;62896;51.032;3.712;2024-02-15T02:30:41;9.7;;;2.8;;
74457;SDS011;62896;51.032;3.712;2024-02-15T02:34:01;9.7;;;2.8;;
74457;SDS011;62896;51.032;3.712;2024-02-15T02:37:21;9.7;;;2.8;;
74457;SDS011;62896;51.032;3.712;2024-02-15T02:40:41;9.7;;;2.8;;
74457;SDS011;62896;51.032;3.712;2024-02-15T02:44:01;7.3;;;2.3;;
74457;SDS011;62896;51.032;3.712;2024-02-15T02:47:21;7.3;;;2.3;;
74457;SDS011;62896;51.032;3.712;2024-02-15T02:50:41;7.3;;;2.3;;
74457;SDS011;62896;51.032;3.712;2024-02-15T02:54:01;7.3;;;2.3;;
74457;SDS011;62896;51.032;3.712;2024-02-15T02:57:21;7.3;;;2.3;;
74457;SDS011;62896;51.032;3.712;2024-02-15T03:00:41;7.3;;;2.3;;
74457;SDS011;62896;51.032;3.712;2024-02-15T03:04:01;7.3;;;2.3;;
74457;SDS011;62896;51.032;3.712;2024-02-15T03:07:21;10;;;2.7;;
74457;SDS011;62896;51.032;3.712;2024-02-15T03:10:41;10;;;2.7;;
74457;SDS011;62896;51.032;3.712;2024-02-15T03:14:01;10;;;2.7;;
74457;SDS011;62896;51.032;3.712;2024-02-15T03:17:21;10;;;2.7;;
74457;SDS011;62896;51.032;3.712;2024-02-15T03:20:41;10;;;2.7;;
74457;SDS011;62896;51.032;3.712;2024-02-15T03:24:01;10;;;2.7;;
74457;SDS011;62896;51.032;3.712;2024-02-15T03:27:21;10;;;2.7;;
74457;SDS011;62896;51.032;3.712;2024-02-15T03:30:41;10;;;2.7;;
74457;SDS011;62896;51.032;3.712;2024-02-15T03:34:01;9.4;;;2.9;;
74457;SDS011;62896;51.032;3.712;2024-02-15T03:37:21;9.4;;;2.9;;
74457;SDS011;62896;51.032;3.712;2024-02-15T03:40:41;9.4;;;2.9;;
74457;SDS011;62896;51.032;3.712;2024-02-15T03:44:01;9.4;;;2.9;;
74457;SDS011;62896;51.032;3.712;2024-02-15T03:47:21;9.4;;;2.9;;
74457;SDS011;62896;51.032;3.712;2024-02-15T03:50:41;9.4;;;2.9;;
74457;SDS011;62896;51.032;3.712;2024-02-15T03:54:01;9.4;;;2.9;;
74457;SDS011;62896;51.032;3.712;2024-02-15T03:57:21;7.9;;;2.6;;
74457;SDS011;62896;51.032;3.712;2024-02-15T04:00:41;7.9;;;2.6;;
74457;SDS011;62896;51.032;3.712;2024-02-15T04:04:01;7.9;;;2.6;;
74457;SDS011;62896;51.032;3.712;2024-02-15T04:07:21;7.9;;;2.6;;
74457;SDS011;62896;51.032;3.712;2024-02-15T04:10:41;7.9;;;2.6;;
74457;SDS011;62896;51.032;3.712;2024-02-15T04:14:01;7.9;;;2.6;;
74457;SDS011;62896;51.032;3.712;2024-02-15T04:17:21;7.9;;;2.6;;
74457;SDS011;62896;51.032;3.712;2024-02-15T04:20:41;7.9;;;2.6;;
74457;SDS011;62896;51.032;3.712;2024-02-15T04:24:01;7.3;;;2.6;;
74457;SDS011;62896;51.032;3.712;2024-02-15T04:27:21;7.3;;;2.6;;
74457;SDS011;62896;51.032;3.712;2024-02-15T04:30:41;7.3;;;2.6;;
74457;SDS011;62896;51.032;3.712;2024-02-15T04:34:01;7.3;;;2.6;;
74457;SDS011;62896;51.032;3.712;2024-02-15T04:37:21;7.3;;;2.6;;
74457;SDS011;62896;51.032;3.712;2024-02-15T04:40:41;7.3;;;2.6;;
74457;SDS011;62896;51.032;3.712;2024-02-15T04:44:01;7.3;;;2.6;;
74457;SDS011;62896;51.032;3.712;2024-02-15T04:47:21;8.2;;;3.2;;
74457;SDS011;62896;51.032;3.712;2024-02-15T04:50:41;8.2;;;3.2;;
74457;SDS011;62896;51.032;3.712;2024-02-15T04:54:01;8.2;;;3.2;;
74457;SDS011;62896;51.032;3.712;2024-02-15T04:57:21;8.2;;;3.2;;
74457;SDS011;62896;51.032;3.712;2024-02-15T05:00:41;8.2;;;3.2;;
74457;SDS011;62896;51.032;3.712;2024-02-15T05:04:01;8.2;;;3.2;;
74457;SDS011;62896;51.032;3.712;2024-02-15T05:07:21;8.2;;;3.2;;
74457;SDS011;62896;51.032;3.712;2024-02-15T05:10:41;8.2;;;3.2;;
74457;SDS011;62896;51.032;3.712;2024-02-15T05:14:01;8.6;;;3.1;;
74457;SDS011;62896;51.032;3.712;2024-02-15T05:17:21;8.6;;;3.1;;
74457;SDS011;62896;51.032;3.712;2024-02-15T05:20:41;8.6;;;3.1;;
74457;SDS011;62896;51.032;3.712;2024-02-15T05:24:01;8.6;;;3.1;;
74457;SDS011;62896;51.032;3.712;2024-02-15T05:27:21;8.6;;;3.1;;
74457;SDS011;62896;51.032;3.712;2024-02-15T05:30:41;8.6;;;3.1;;
74457;SDS011;62896;51.032;3.712;2024-02-15T05:34:01;8.6;;;3.1;;
74457;SDS011;62896;51.032;3.712;2024-02-15T05:37:21;7.5;;;2.2;;
74457;SDS011;62896;51.032;3.712;2024-02-15T05:40:41;7.5;;;2.2;;
74457;SDS011;62896;51.032;3.712;2024-02-15T05:44:01;7.5;;;2.2;;
74457;SDS011;62896;51.032;3.712;2024-02-15T05:47:21;7.5;;;2.2;;
74457;SDS011;62896;51.032;3.712;2024-02-15T05:50:41;7.5;;;2.2;;
74457;SDS011;62896;51.032;3.712;2024-02-15T05:54:01;7.5;;;2.2;;
74457;SDS011;62896;51.032;3.712;2024-02-15T05:57:21;7.5;;;2.2;;
74457;SDS011;62896;51.032;3.712;2024-02-15T06:00:41;7.5;;;2.2;;
74457;SDS011;62896;51.032;3.712;2024-02-15T06:04:01;4.9;;;2.1;;
74457;SDS011;62896;51.032;3.712;2024-02-15T06:07:21;4.9;;;2.1;;
74457;SDS011;62896;51.032;3.712;2024-02-15T06:10:41;4.9;;;2.1;;
74457;SDS011;62896;51.032;3.712;2024-02-15T06:14:01;4.9;;;2.1;;
74457;SDS011;62896;51.032;3.712;2024-02-15T06:17:21;4.9;;;2.1;;
74457;SDS011;62896;51.032;3.712;2024-02-15T06:20:41;4.9;;;2.1;;
74457;SDS011;62896;51.032;3.712;2024-02-15T06:24:01;4.9;;;2.1;;
74457;SDS011;62896;51.032;3.712;2024-02-15T06:27:21;5.7;;;1.8;;
74457;SDS011;62896;51.032;3.712;2024-02-15T06:30:41;5.7;;;1.8;;
74457;SDS011;62896;51.032;3.712;2024-02-15T06:34:01;5.7;;;1.8;;
74457;SDS011;62896;51.032;3.712;2024-02-15T06:37:37;5.7;;;1.8;;
74457;SDS011;62896;51.032;3.712;2024-02-15T06:40:41;5.7;;;1.8;;
74457;SDS011;62896;51.032;3.712;2024-02-15T06:44:01;5.7;;;1.8;;
74457;SDS011;62896;51.032;3.712;2024-02-15T06:47:21;5.7;;;1.8;;
74457;SDS011;62896;51.032;3.712;2024-02-15T06:50:41;5.7;;;1.8;;
74457;SDS011;62896;51.032;3.712;2024-02-15T06:54:01;4;;;1.6;;
74457;SDS011;62896;51.032;3.712;2024-02-15T06:57:21;4;;;1.6;;
74457;SDS011;62896;51.032;3.712;2024-02-15T07:00:41;4;;;1.6;;
74457;SDS011;62896;51.032;3.712;2024-02-15T07:04:01;4;;;1.6;;
74457;SDS011;62896;51.032;3.712;2024-02-15T07:07:21;4;;;1.6;;
74457;SDS011;62896;51.032;3.712;2024-02-15T07:10:41;4;;;1.6;;
74457;SDS011;62896;51.032;3.712;2024-02-15T07:14:01;4;;;1.6;;
74457;SDS011;62896;51.032;3.712;2024-02-15T07:17:21;7.6;;;1.7;;
74457;SDS011;62896;51.032;3.712;2024-02-15T07:20:41;7.6;;;1.7;;
74457;SDS011;62896;51.032;3.712;2024-02-15T07:24:01;7.6;;;1.7;;
74457;SDS011;62896;51.032;3.712;2024-02-15T07:27:21;7.6;;;1.7;;
74457;SDS011;62896;51.032;3.712;2024-02-15T07:30:41;7.6;;;1.7;;
74457;SDS011;62896;51.032;3.712;2024-02-15T07:34:02;7.6;;;1.7;;
74457;SDS011;62896;51.032;3.712;2024-02-15T07:37:21;7.6;;;1.7;;
74457;SDS011;62896;51.032;3.712;2024-02-15T07:40:41;7.6;;;1.7;;
74457;SDS011;62896;51.032;3.712;2024-02-15T07:44:01;5.2;;;1.7;;
74457;SDS011;62896;51.032;3.712;2024-02-15T07:47:21;5.2;;;1.7;;
74457;SDS011;62896;51.032;3.712;2024-02-15T07:50:41;5.2;;;1.7;;
74457;SDS011;62896;51.032;3.712;2024-02-15T07:54:01;5.2;;;1.7;;
74457;SDS011;62896;51.032;3.712;2024-02-15T07:57:21;5.2;;;1.7;;
74457;SDS011;62896;51.032;3.712;2024-02-15T08:00:41;5.2;;;1.7;;
74457;SDS011;62896;51.032;3.712;2024-02-15T08:04:01;5.2;;;1.7;;
74457;SDS011;62896;51.032;3.712;2024-02-15T08:07:21;8.2;;;1.7;;
74457;SDS011;62896;51.032;3.712;2024-02-15T08:10:41;8.2;;;1.7;;
74457;SDS011;62896;51.032;3.712;2024-02-15T08:14:01;8.2;;;1.7;;
74457;SDS011;62896;51.032;3.712;2024-02-15T08:17:21;8.2;;;1.7;;
74457;SDS011;62896;51.032;3.712;2024-02-15T08:20:41;8.2;;;1.7;;
74457;SDS011;62896;51.032;3.712;2024-02-15T08:24:01;8.2;;;1.7;;
74457;SDS011;62896;51.032;3.712;2024-02-15T08:27:21;8.2;;;1.7;;
74457;SDS011;62896;51.032;3.712;2024-02-15T08:30:41;8.2;;;1.7;;
74457;SDS011;62896;51.032;3.712;2024-02-15T08:34:02;4;;;1.8;;
74457;SDS011;62896;51.032;3.712;2024-02-15T08:37:21;4;;;1.8;;
74457;SDS011;62896;51.032;3.712;2024-02-15T08:40:41;4;;;1.8;;
74457;SDS011;62896;51.032;3.712;2024-02-15T08:44:01;4;;;1.8;;
74457;SDS011;62896;51.032;3.712;2024-02-15T08:47:21;4;;;1.8;;
74457;SDS011;62896;51.032;3.712;2024-02-15T08:50:41;4;;;1.8;;
74457;SDS011;62896;51.032;3.712;2024-02-15T08:54:01;4;;;1.8;;
74457;SDS011;62896;51.032;3.712;2024-02-15T08:57:21;7.1;;;2.3;;
74457;SDS011;62896;51.032;3.712;2024-02-15T09:00:41;7.1;;;2.3;;
74457;SDS011;62896;51.032;3.712;2024-02-15T09:04:01;7.1;;;2.3;;
74457;SDS011;62896;51.032;3.712;2024-02-15T09:07:21;7.1;;;2.3;;
74457;SDS011;62896;51.032;3.712;2024-02-15T09:10:41;7.1;;;2.3;;
74457;SDS011;62896;51.032;3.712;2024-02-15T09:14:01;7.1;;;2.3;;
74457;SDS011;62896;51.032;3.712;2024-02-15T09:17:21;7.1;;;2.3;;
74457;SDS011;62896;51.032;3.712;2024-02-15T09:20:41;7.1;;;2.3;;
74457;SDS011;62896;51.032;3.712;2024-02-15T09:24:01;4.8;;;1.4;;
74457;SDS011;62896;51.032;3.712;2024-02-15T09:27:21;4.8;;;1.4;;
74457;SDS011;62896;51.032;3.712;2024-02-15T09:30:41;4.8;;;1.4;;
74457;SDS011;62896;51.032;3.712;2024-02-15T09:34:01;4.8;;;1.4;;
74457;SDS011;62896;51.032;3.712;2024-02-15T09:37:21;4.8;;;1.4;;
74457;SDS011;62896;51.032;3.712;2024-02-15T09:40:42;4.8;;;1.4;;
74457;SDS011;62896;51.032;3.712;2024-02-15T09:44:01;4.8;;;1.4;;
74457;SDS011;62896;51.032;3.712;2024-02-15T09:47:21;5.5;;;1.8;;
74457;SDS011;62896;51.032;3.712;2024-02-15T09:50:41;5.5;;;1.8;;
74457;SDS011;62896;51.032;3.712;2024-02-15T09:54:02;5.5;;;1.8;;
74457;SDS011;62896;51.032;3.712;2024-02-15T09:57:21;5.5;;;1.8;;
74457;SDS011;62896;51.032;3.712;2024-02-15T10:00:41;5.5;;;1.8;;
74457;SDS011;62896;51.032;3.712;2024-02-15T10:04:01;5.5;;;1.8;;
74457;SDS011;62896;51.032;3.712;2024-02-15T10:07:22;5.5;;;1.8;;
74457;SDS011;62896;51.032;3.712;2024-02-15T10:10:41;5.5;;;1.8;;
74457;SDS011;62896;51.032;3.712;2024-02-15T10:14:09;4.2;;;1.7;;
74457;SDS011;62896;51.032;3.712;2024-02-15T10:17:21;4.2;;;1.7;;
74457;SDS011;62896;51.032;3.712;2024-02-15T10:20:41;4.2;;;1.7;;
74457;SDS011;62896;51.032;3.712;2024-02-15T10:24:04;4.2;;;1.7;;
74457;SDS011;62896;51.032;3.712;2024-02-15T10:27:23;4.2;;;1.7;;
74457;SDS011;62896;51.032;3.712;2024-02-15T10:30:42;4.2;;;1.7;;
74457;SDS011;62896;51.032;3.712;2024-02-15T10:34:02;4.2;;;1.7;;
74457;SDS011;62896;51.032;3.712;2024-02-15T10:37:21;3.6;;;1.5;;
74457;SDS011;62896;51.032;3.712;2024-02-15T10:40:41;3.6;;;1.5;;
74457;SDS011;62896;51.032;3.712;2024-02-15T10:44:01;3.6;;;1.5;;
74457;SDS011;62896;51.032;3.712;2024-02-15T10:47:21;3.6;;;1.5;;
74457;SDS011;62896;51.032;3.712;2024-02-15T10:50:41;3.6;;;1.5;;
74457;SDS011;62896;51.032;3.712;2024-02-15T10:54:02;3.6;;;1.5;;
74457;SDS011;62896;51.032;3.712;2024-02-15T10:57:21;3.6;;;1.5;;
74457;SDS011;62896;51.032;3.712;2024-02-15T11:00:41;3.6;;;1.5;;
74457;SDS011;62896;51.032;3.712;2024-02-15T11:04:03;6.1;;;1.5;;
74457;SDS011;62896;51.032;3.712;2024-02-15T11:07:22;6.1;;;1.5;;
74457;SDS011;62896;51.032;3.712;2024-02-15T11:10:42;6.1;;;1.5;;
74457;SDS011;62896;51.032;3.712;2024-02-15T11:14:33;6.1;;;1.5;;
74457;SDS011;62896;51.032;3.712;2024-02-15T11:17:53;6.1;;;1.5;;
74457;SDS011;62896;51.032;3.712;2024-02-15T11:20:49;6.1;;;1.5;;
74457;SDS011;62896;51.032;3.712;2024-02-15T11:24:14;6.1;;;1.5;;
74457;SDS011;62896;51.032;3.712;2024-02-15T11:27:25;3.8;;;1.6;;
74457;SDS011;62896;51.032;3.712;2024-02-15T11:30:41;3.8;;;1.6;;
74457;SDS011;62896;51.032;3.712;2024-02-15T11:34:13;3.8;;;1.6;;
74457;SDS011;62896;51.032;3.712;2024-02-15T11:37:49;3.8;;;1.6;;
74457;SDS011;62896;51.032;3.712;2024-02-15T11:41:17;3.8;;;1.6;;
74457;SDS011;62896;51.032;3.712;2024-02-15T11:44:01;3.8;;;1.6;;
74457;SDS011;62896;51.032;3.712;2024-02-15T11:47:21;3.8;;;1.6;;
74457;SDS011;62896;51.032;3.712;2024-02-15T11:50:41;3.8;;;1.6;;
74457;SDS011;62896;51.032;3.712;2024-02-15T11:54:02;4;;;1.6;;
74457;SDS011;62896;51.032;3.712;2024-02-15T11:57:21;4;;;1.6;;
74457;SDS011;62896;51.032;3.712;2024-02-15T12:00:41;4;;;1.6;;
74457;SDS011;62896;51.032;3.712;2024-02-15T12:04:01;4;;;1.6;;
74457;SDS011;62896;51.032;3.712;2024-02-15T12:07:21;4;;;1.6;;
74457;SDS011;62896;51.032;3.712;2024-02-15T12:10:41;4;;;1.6;;
74457;SDS011;62896;51.032;3.712;2024-02-15T12:14:01;4;;;1.6;;
74457;SDS011;62896;51.032;3.712;2024-02-15T12:17:23;5.3;;;1.8;;
74457;SDS011;62896;51.032;3.712;2024-02-15T12:20:41;5.3;;;1.8;;
74457;SDS011;62896;51.032;3.712;2024-02-15T12:24:01;5.3;;;1.8;;
74457;SDS011;62896;51.032;3.712;2024-02-15T12:27:22;5.3;;;1.8;;
74457;SDS011;62896;51.032;3.712;2024-02-15T12:30:41;5.3;;;1.8;;
74457;SDS011;62896;51.032;3.712;2024-02-15T12:34:01;5.3;;;1.8;;
74457;SDS011;62896;51.032;3.712;2024-02-15T12:37:21;5.3;;;1.8;;
74457;SDS011;62896;51.032;3.712;2024-02-15T12:40:41;5.3;;;1.8;;
74457;SDS011;62896;51.032;3.712;2024-02-15T12:44:01;6.4;;;1.8;;
74457;SDS011;62896;51.032;3.712;2024-02-15T12:47:22;6.4;;;1.8;;
74457;SDS011;62896;51.032;3.712;2024-02-15T12:50:41;6.4;;;1.8;;
74457;SDS011;62896;51.032;3.712;2024-02-15T12:54:09;6.4;;;1.8;;
74457;SDS011;62896;51.032;3.712;2024-02-15T12:57:21;6.4;;;1.8;;
74457;SDS011;62896;51.032;3.712;2024-02-15T13:00:41;6.4;;;1.8;;
74457;SDS011;62896;51.032;3.712;2024-02-15T13:04:01;6.4;;;1.8;;
74457;SDS011;62896;51.032;3.712;2024-02-15T13:07:21;4.8;;;1.7;;
74457;SDS011;62896;51.032;3.712;2024-02-15T13:10:41;4.8;;;1.7;;
74457;SDS011;62896;51.032;3.712;2024-02-15T13:14:01;4.8;;;1.7;;
74457;SDS011;62896;51.032;3.712;2024-02-15T13:17:21;4.8;;;1.7;;
74457;SDS011;62896;51.032;3.712;2024-02-15T13:20:41;4.8;;;1.7;;
74457;SDS011;62896;51.032;3.712;2024-02-15T13:24:01;4.8;;;1.7;;
74457;SDS011;62896;51.032;3.712;2024-02-15T13:27:21;4.8;;;1.7;;
74457;SDS011;62896;51.032;3.712;2024-02-15T13:30:42;4.8;;;1.7;;
74457;SDS011;62896;51.032;3.712;2024-02-15T13:34:01;5.2;;;1.6;;
74457;SDS011;62896;51.032;3.712;2024-02-15T13:37:22;5.2;;;1.6;;
74457;SDS011;62896;51.032;3.712;2024-02-15T13:40:41;5.2;;;1.6;;
74457;SDS011;62896;51.032;3.712;2024-02-15T13:44:01;5.2;;;1.6;;
74457;SDS011;62896;51.032;3.712;2024-02-15T13:47:21;5.2;;;1.6;;
74457;SDS011;62896;51.032;3.712;2024-02-15T13:50:42;5.2;;;1.6;;
74457;SDS011;62896;51.032;3.712;2024-02-15T13:54:01;5.2;;;1.6;;
74457;SDS011;62896;51.032;3.712;2024-02-15T13:57:21;5.1;;;2.5;;
74457;SDS011;62896;51.032;3.712;2024-02-15T14:00:41;5.1;;;2.5;;
74457;SDS011;62896;51.032;3.712;2024-02-15T14:04:01;5.1;;;2.5;;
74457;SDS011;62896;51.032;3.712;2024-02-15T14:07:21;5.1;;;2.5;;
74457;SDS011;62896;51.032;3.712;2024-02-15T14:10:41;5.1;;;2.5;;
74457;SDS011;62896;51.032;3.712;2024-02-15T14:14:01;5.1;;;2.5;;
74457;SDS011;62896;51.032;3.712;2024-02-15T14:17:21;5.1;;;2.5;;
74457;SDS011;62896;51.032;3.712;2024-02-15T14:20:41;5.1;;;2.5;;
74457;SDS011;62896;51.032;3.712;2024-02-15T14:24:02;6.6;;;3;;
74457;SDS011;62896;51.032;3.712;2024-02-15T14:27:21;6.6;;;3;;
74457;SDS011;62896;51.032;3.712;2024-02-15T14:30:41;6.6;;;3;;
74457;SDS011;62896;51.032;3.712;2024-02-15T14:34:01;6.6;;;3;;
74457;SDS011;62896;51.032;3.712;2024-02-15T14:37:21;6.6;;;3;;
74457;SDS011;62896;51.032;3.712;2024-02-15T14:40:42;6.6;;;3;;
74457;SDS011;62896;51.032;3.712;2024-02-15T14:44:01;6.6;;;3;;
74457;SDS011;62896;51.032;3.712;2024-02-15T14:47:21;20.4;;;4.7;;
74457;SDS011;62896;51.032;3.712;2024-02-15T14:50:42;20.4;;;4.7;;
74457;SDS011;62896;51.032;3.712;2024-02-15T14:54:01;20.4;;;4.7;;
74457;SDS011;62896;51.032;3.712;2024-02-15T14:57:22;20.4;;;4.7;;
74457;SDS011;62896;51.032;3.712;2024-02-15T15:00:41;20.4;;;4.7;;
74457;SDS011;62896;51.032;3.712;2024-02-15T15:04:01;20.4;;;4.7;;
74457;SDS011;62896;51.032;3.712;2024-02-15T15:07:21;20.4;;;4.7;;
74457;SDS011;62896;51.032;3.712;2024-02-15T15:10:42;20.4;;;4.7;;
74457;SDS011;62896;51.032;3.712;2024-02-15T15:14:02;12.6;;;4.1;;
74457;SDS011;62896;51.032;3.712;2024-02-15T15:17:22;12.6;;;4.1;;
74457;SDS011;62896;51.032;3.712;2024-02-15T15:20:42;12.6;;;4.1;;
74457;SDS011;62896;51.032;3.712;2024-02-15T15:24:02;12.6;;;4.1;;
74457;SDS011;62896;51.032;3.712;2024-02-15T15:27:22;12.6;;;4.1;;
74457;SDS011;62896;51.032;3.712;2024-02-15T15:30:42;12.6;;;4.1;;
74457;SDS011;62896;51.032;3.712;2024-02-15T15:34:02;12.6;;;4.1;;
74457;SDS011;62896;51.032;3.712;2024-02-15T15:37:22;10.3;;;3.9;;
74457;SDS011;62896;51.032;3.712;2024-02-15T15:40:42;10.3;;;3.9;;
74457;SDS011;62896;51.032;3.712;2024-02-15T15:44:02;10.3;;;3.9;;
74457;SDS011;62896;51.032;3.712;2024-02-15T15:47:22;10.3;;;3.9;;
74457;SDS011;62896;51.032;3.712;2024-02-15T15:50:42;10.3;;;3.9;;
74457;SDS011;62896;51.032;3.712;2024-02-15T15:54:02;10.3;;;3.9;;
74457;SDS011;62896;51.032;3.712;2024-02-15T15:57:22;10.3;;;3.9;;
74457;SDS011;62896;51.032;3.712;2024-02-15T16:00:42;10.3;;;3.9;;
74457;SDS011;62896;51.032;3.712;2024-02-15T16:04:02;7.5;;;3.8;;
74457;SDS011;62896;51.032;3.712;2024-02-15T16:07:22;7.5;;;3.8;;
74457;SDS011;62896;51.032;3.712;2024-02-15T16:10:42;7.5;;;3.8;;
74457;SDS011;62896;51.032;3.712;2024-02-15T16:14:02;7.5;;;3.8;;
74457;SDS011;62896;51.032;3.712;2024-02-15T16:17:22;7.5;;;3.8;;
74457;SDS011;62896;51.032;3.712;2024-02-15T16:20:42;7.5;;;3.8;;
74457;SDS011;62896;51.032;3.712;2024-02-15T16:24:02;7.5;;;3.8;;
74457;SDS011;62896;51.032;3.712;2024-02-15T16:27:22;8.1;;;3;;
74457;SDS011;62896;51.032;3.712;2024-02-15T16:30:42;8.1;;;3;;
74457;SDS011;62896;51.032;3.712;2024-02-15T16:34:02;8.1;;;3;;
74457;SDS011;62896;51.032;3.712;2024-02-15T16:37:22;8.1;;;3;;
74457;SDS011;62896;51.032;3.712;2024-02-15T16:40:42;8.1;;;3;;
74457;SDS011;62896;51.032;3.712;2024-02-15T16:44:02;8.1;;;3;;
74457;SDS011;62896;51.032;3.712;2024-02-15T16:47:22;8.1;;;3;;
74457;SDS011;62896;51.032;3.712;2024-02-15T16:50:42;8.1;;;3;;
74457;SDS011;62896;51.032;3.712;2024-02-15T16:54:02;8;;;3.1;;
74457;SDS011;62896;51.032;3.712;2024-02-15T16:57:22;8;;;3.1;;
74457;SDS011;62896;51.032;3.712;2024-02-15T17:00:42;8;;;3.1;;
74457;SDS011;62896;51.032;3.712;2024-02-15T17:04:02;8;;;3.1;;
74457;SDS011;62896;51.032;3.712;2024-02-15T17:07:22;8;;;3.1;;
74457;SDS011;62896;51.032;3.712;2024-02-15T17:10:42;8;;;3.1;;
74457;SDS011;62896;51.032;3.712;2024-02-15T17:14:02;8;;;3.1;;
74457;SDS011;62896;51.032;3.712;2024-02-15T17:17:22;7.1;;;3.5;;
74457;SDS011;62896;51.032;3.712;2024-02-15T17:20:42;7.1;;;3.5;;
74457;SDS011;62896;51.032;3.712;2024-02-15T17:24:02;7.1;;;3.5;;
74457;SDS011;62896;51.032;3.712;2024-02-15T17:27:22;7.1;;;3.5;;
74457;SDS011;62896;51.032;3.712;2024-02-15T17:30:42;7.1;;;3.5;;
74457;SDS011;62896;51.032;3.712;2024-02-15T17:34:02;7.1;;;3.5;;
74457;SDS011;62896;51.032;3.712;2024-02-15T17:37:22;7.1;;;3.5;;
74457;SDS011;62896;51.032;3.712;2024-02-15T17:40:42;7.1;;;3.5;;
74457;SDS011;62896;51.032;3.712;2024-02-15T17:44:02;11.3;;;4.1;;
74457;SDS011;62896;51.032;3.712;2024-02-15T17:47:22;11.3;;;4.1;;
74457;SDS011;62896;51.032;3.712;2024-02-15T17:50:42;11.3;;;4.1;;
74457;SDS011;62896;51.032;3.712;2024-02-15T17:54:02;11.3;;;4.1;;
74457;SDS011;62896;51.032;3.712;2024-02-15T17:57:22;11.3;;;4.1;;
74457;SDS011;62896;51.032;3.712;2024-02-15T18:00:42;11.3;;;4.1;;
74457;SDS011;62896;51.032;3.712;2024-02-15T18:04:02;11.3;;;4.1;;
74457;SDS011;62896;51.032;3.712;2024-02-15T18:07:22;6.8;;;3.7;;
74457;SDS011;62896;51.032;3.712;2024-02-15T18:10:42;6.8;;;3.7;;
74457;SDS011;62896;51.032;3.712;2024-02-15T18:14:02;6.8;;;3.7;;
74457;SDS011;62896;51.032;3.712;2024-02-15T18:17:22;6.8;;;3.7;;
74457;SDS011;62896;51.032;3.712;2024-02-15T18:20:42;6.8;;;3.7;;
74457;SDS011;62896;51.032;3.712;2024-02-15T18:24:02;6.8;;;3.7;;
74457;SDS011;62896;51.032;3.712;2024-02-15T18:27:22;6.8;;;3.7;;
74457;SDS011;62896;51.032;3.712;2024-02-15T18:30:42;6.8;;;3.7;;
74457;SDS011;62896;51.032;3.712;2024-02-15T18:34:02;9.3;;;4.1;;
74457;SDS011;62896;51.032;3.712;2024-02-15T18:37:22;9.3;;;4.1;;
74457;SDS011;62896;51.032;3.712;2024-02-15T18:40:42;9.3;;;4.1;;
74457;SDS011;62896;51.032;3.712;2024-02-15T18:44:02;9.3;;;4.1;;
74457;SDS011;62896;51.032;3.712;2024-02-15T18:47:22;9.3;;;4.1;;
74457;SDS011;62896;51.032;3.712;2024-02-15T18:50:43;9.3;;;4.1;;
74457;SDS011;62896;51.032;3.712;2024-02-15T18:54:02;9.3;;;4.1;;
74457;SDS011;62896;51.032;3.712;2024-02-15T18:57:22;9.7;;;3.9;;
74457;SDS011;62896;51.032;3.712;2024-02-15T19:00:42;9.7;;;3.9;;
74457;SDS011;62896;51.032;3.712;2024-02-15T19:04:02;9.7;;;3.9;;
74457;SDS011;62896;51.032;3.712;2024-02-15T19:07:22;9.7;;;3.9;;
74457;SDS011;62896;51.032;3.712;2024-02-15T19:10:42;9.7;;;3.9;;
74457;SDS011;62896;51.032;3.712;2024-02-15T19:14:02;9.7;;;3.9;;
74457;SDS011;62896;51.032;3.712;2024-02-15T19:17:22;9.7;;;3.9;;
74457;SDS011;62896;51.032;3.712;2024-02-15T19:20:42;9.7;;;3.9;;
74457;SDS011;62896;51.032;3.712;2024-02-15T19:24:02;6.3;;;2.3;;
74457;SDS011;62896;51.032;3.712;2024-02-15T19:27:22;6.3;;;2.3;;
74457;SDS011;62896;51.032;3.712;2024-02-15T19:30:42;6.3;;;2.3;;
74457;SDS011;62896;51.032;3.712;2024-02-15T19:34:02;6.3;;;2.3;;
74457;SDS011;62896;51.032;3.712;2024-02-15T19:37:22;6.3;;;2.3;;
74457;SDS011;62896;51.032;3.712;2024-02-15T19:40:42;6.3;;;2.3;;
74457;SDS011;62896;51.032;3.712;2024-02-15T19:44:02;6.3;;;2.3;;
74457;SDS011;62896;51.032;3.712;2024-02-15T19:47:22;3.9;;;1.8;;
74457;SDS011;62896;51.032;3.712;2024-02-15T19:50:42;3.9;;;1.8;;
74457;SDS011;62896;51.032;3.712;2024-02-15T19:54:02;3.9;;;1.8;;
74457;SDS011;62896;51.032;3.712;2024-02-15T19:57:22;3.9;;;1.8;;
74457;SDS011;62896;51.032;3.712;2024-02-15T20:00:42;3.9;;;1.8;;
74457;SDS011;62896;51.032;3.712;2024-02-15T20:04:02;3.9;;;1.8;;
74457;SDS011;62896;51.032;3.712;2024-02-15T20:07:22;3.9;;;1.8;;
74457;SDS011;62896;51.032;3.712;2024-02-15T20:10:42;3.9;;;1.8;;
74457;SDS011;62896;51.032;3.712;2024-02-15T20:14:02;8.7;;;2;;
74457;SDS011;62896;51.032;3.712;2024-02-15T20:17:22;8.7;;;2;;
74457;SDS011;62896;51.032;3.712;2024-02-15T20:20:42;8.7;;;2;;
74457;SDS011;62896;51.032;3.712;2024-02-15T20:24:02;8.7;;;2;;
74457;SDS011;62896;51.032;3.712;2024-02-15T20:27:22;8.7;;;2;;
74457;SDS011;62896;51.032;3.712;2024-02-15T20:30:42;8.7;;;2;;
74457;SDS011;62896;51.032;3.712;2024-02-15T20:34:02;8.7;;;2;;
74457;SDS011;62896;51.032;3.712;2024-02-15T20:37:22;2.8;;;1.9;;
74457;SDS011;62896;51.032;3.712;2024-02-15T20:40:42;2.8;;;1.9;;
74457;SDS011;62896;51.032;3.712;2024-02-15T20:44:02;2.8;;;1.9;;